Nicole Leigh Reinauer — WCZ5696 — position and weather

sailwx.info

Track history (hours):
 
Tides and Currents Weather Stations Pressure Air Temp Water Temp Dewpoint Dewpoint Depression Visibility Wind Speed Wind Dir Waves Ship Positions

Nicole Leigh Reinauer

Owner: H A REINAUER INC, STATEN ISLAND, NY. More information available from US FCC via Universal Licensing System and Coast Guard Vessel Documentation Center.

Last reported at 2014-Dec-19 13:25 UTC. Time now 2014-Dec-21 06:57 UTC.
Position N 29°59' W 090°49'.

Length 167 m; draft 6 m.

Type: Wing in ground effect craft. MMSI: 366774330.

Date/timePositionNaut miles runAvg speedWind from/ knotsBaromVisibWave heightAir tempDewpointWater temp
2014-Dec-19 13:25N 29°59' W 090°49'456 9.5
2014-Dec-17 13:33N 25°32' W 083°52'1211.5
2014-Dec-17 12:28N 25°21' W 083°46'1111.8
2014-Dec-17 11:31N 25°11' W 083°40'3611.4
2014-Dec-17 08:21N 24°39' W 083°22'189 8.6
2014-Dec-16 10:25N 25°35' W 080°03'8 9.6
2014-Dec-16 09:33N 25°43' W 080°03'1110.6
2014-Dec-16 08:33N 25°54' W 080°04'1110.9
2014-Dec-16 07:33N 26°05' W 080°04'3 2.8
2014-Dec-16 06:31N 26°06' W 080°07'0 0.0
2014-Dec-16 03:25N 26°06' W 080°07'0 0.0
2014-Dec-16 00:15N 26°06' W 080°07'0 0.0
2014-Dec-15 23:13N 26°06' W 080°07'0 0.0
2014-Dec-15 22:28N 26°06' W 080°07'0 0.0
2014-Dec-15 21:25N 26°06' W 080°07'0 0.0
2014-Dec-15 20:31N 26°06' W 080°07'0 0.0
2014-Dec-15 19:31N 26°06' W 080°07'0 0.0
2014-Dec-15 18:31N 26°06' W 080°07'0 0.0
2014-Dec-15 17:31N 26°06' W 080°07'0 0.0
2014-Dec-15 16:31N 26°06' W 080°07'0 0.0
2014-Dec-15 15:33N 26°06' W 080°07'0 0.0
2014-Dec-15 14:33N 26°06' W 080°07'0 0.4
2014-Dec-15 13:33N 26°06' W 080°07'4 4.4
2014-Dec-15 12:33N 26°03' W 080°03'6 5.5
2014-Dec-15 11:33N 25°58' W 080°02'1211.5
2014-Dec-15 10:33N 25°46' W 080°01'1212.3
2014-Dec-15 09:33N 25°34' W 080°01'187 5.0
2014-Dec-13 20:29N 27°41' W 082°34'7 7.4
2014-Dec-13 19:33N 27°48' W 082°34'4 3.9
2014-Dec-13 18:33N 27°52' W 082°33'0 0.0
2014-Dec-13 17:33N 27°52' W 082°33'0 0.0
2014-Dec-13 16:33N 27°52' W 082°33'0 0.0
2014-Dec-13 15:33N 27°52' W 082°33'0 0.0
2014-Dec-13 14:30N 27°52' W 082°33'0 0.0
2014-Dec-13 13:33N 27°52' W 082°33'0 0.0
2014-Dec-13 12:33N 27°52' W 082°33'0 0.0
2014-Dec-13 11:33N 27°52' W 082°33'0 0.0
2014-Dec-13 10:33N 27°52' W 082°33'0 0.0
2014-Dec-13 09:33N 27°52' W 082°33'0 0.0
2014-Dec-13 08:33N 27°52' W 082°33'0 0.0
2014-Dec-13 07:33N 27°52' W 082°33'0 0.0
2014-Dec-13 06:33N 27°52' W 082°33'0 0.0
2014-Dec-13 05:33N 27°52' W 082°33'0 0.0
2014-Dec-13 04:33N 27°52' W 082°33'0 0.0
2014-Dec-13 03:33N 27°52' W 082°33'0 0.0
2014-Dec-13 02:30N 27°52' W 082°33'0 0.0
2014-Dec-13 01:33N 27°52' W 082°33'0 0.0
2014-Dec-13 00:33N 27°52' W 082°33'0 0.0
2014-Dec-12 23:33N 27°52' W 082°33'0 0.0
2014-Dec-12 22:33N 27°52' W 082°33'0 0.0
2014-Dec-12 21:33N 27°52' W 082°33'0 0.0
2014-Dec-12 20:33N 27°52' W 082°33'0 0.0
2014-Dec-12 19:33N 27°52' W 082°33'0 0.0
2014-Dec-12 18:33N 27°52' W 082°33'4 4.5
2014-Dec-12 17:33N 27°47' W 082°33'  
Track history (hours):
 
Tides and Currents Weather Stations Pressure Air Temp Water Temp Dewpoint Dewpoint Depression Visibility Wind Speed Wind Dir Waves Ship Positions

Nicole Leigh Reinauer

Owner: H A REINAUER INC, STATEN ISLAND, NY. More information available from US FCC via Universal Licensing System and Coast Guard Vessel Documentation Center.

Last reported at 2014-Dec-19 13:25 UTC. Time now 2014-Dec-21 06:57 UTC.
Position N 29°59' W 090°49'.

Length 167 m; draft 6 m.

Type: Wing in ground effect craft. MMSI: 366774330.

Date/timePositionNaut miles runAvg speedWind from/ knotsBaromVisibWave heightAir tempDewpointWater temp
2014-Dec-19 13:25N 29°59' W 090°49'456 9.5
2014-Dec-17 13:33N 25°32' W 083°52'1211.5
2014-Dec-17 12:28N 25°21' W 083°46'1111.8
2014-Dec-17 11:31N 25°11' W 083°40'3611.4
2014-Dec-17 08:21N 24°39' W 083°22'189 8.6
2014-Dec-16 10:25N 25°35' W 080°03'8 9.6
2014-Dec-16 09:33N 25°43' W 080°03'1110.6
2014-Dec-16 08:33N 25°54' W 080°04'1110.9
2014-Dec-16 07:33N 26°05' W 080°04'3 2.8
2014-Dec-16 06:31N 26°06' W 080°07'0 0.0
2014-Dec-16 03:25N 26°06' W 080°07'0 0.0
2014-Dec-16 00:15N 26°06' W 080°07'0 0.0
2014-Dec-15 23:13N 26°06' W 080°07'0 0.0
2014-Dec-15 22:28N 26°06' W 080°07'0 0.0
2014-Dec-15 21:25N 26°06' W 080°07'0 0.0
2014-Dec-15 20:31N 26°06' W 080°07'0 0.0
2014-Dec-15 19:31N 26°06' W 080°07'0 0.0
2014-Dec-15 18:31N 26°06' W 080°07'0 0.0
2014-Dec-15 17:31N 26°06' W 080°07'0 0.0
2014-Dec-15 16:31N 26°06' W 080°07'0 0.0
2014-Dec-15 15:33N 26°06' W 080°07'0 0.0
2014-Dec-15 14:33N 26°06' W 080°07'0 0.4
2014-Dec-15 13:33N 26°06' W 080°07'4 4.4
2014-Dec-15 12:33N 26°03' W 080°03'6 5.5
2014-Dec-15 11:33N 25°58' W 080°02'1211.5
2014-Dec-15 10:33N 25°46' W 080°01'1212.3
2014-Dec-15 09:33N 25°34' W 080°01'187 5.0
2014-Dec-13 20:29N 27°41' W 082°34'7 7.4
2014-Dec-13 19:33N 27°48' W 082°34'4 3.9
2014-Dec-13 18:33N 27°52' W 082°33'0 0.0
2014-Dec-13 17:33N 27°52' W 082°33'0 0.0
2014-Dec-13 16:33N 27°52' W 082°33'0 0.0
2014-Dec-13 15:33N 27°52' W 082°33'0 0.0
2014-Dec-13 14:30N 27°52' W 082°33'0 0.0
2014-Dec-13 13:33N 27°52' W 082°33'0 0.0
2014-Dec-13 12:33N 27°52' W 082°33'0 0.0
2014-Dec-13 11:33N 27°52' W 082°33'0 0.0
2014-Dec-13 10:33N 27°52' W 082°33'0 0.0
2014-Dec-13 09:33N 27°52' W 082°33'0 0.0
2014-Dec-13 08:33N 27°52' W 082°33'0 0.0
2014-Dec-13 07:33N 27°52' W 082°33'0 0.0
2014-Dec-13 06:33N 27°52' W 082°33'0 0.0
2014-Dec-13 05:33N 27°52' W 082°33'0 0.0
2014-Dec-13 04:33N 27°52' W 082°33'0 0.0
2014-Dec-13 03:33N 27°52' W 082°33'0 0.0
2014-Dec-13 02:30N 27°52' W 082°33'0 0.0
2014-Dec-13 01:33N 27°52' W 082°33'0 0.0
2014-Dec-13 00:33N 27°52' W 082°33'0 0.0
2014-Dec-12 23:33N 27°52' W 082°33'0 0.0
2014-Dec-12 22:33N 27°52' W 082°33'0 0.0
2014-Dec-12 21:33N 27°52' W 082°33'0 0.0
2014-Dec-12 20:33N 27°52' W 082°33'0 0.0
2014-Dec-12 19:33N 27°52' W 082°33'0 0.0
2014-Dec-12 18:33N 27°52' W 082°33'4 4.5
2014-Dec-12 17:33N 27°47' W 082°33'  

Dump ship's entire track history